DUD weather

Dunedin Airport
Dunedin, Otago Region, New Zealand

Public forecast

Using degrees Celsius for public forecast. Weather courtesy of forecast.io.

Closest aviation weather report (METAR) to Dunedin Airport

Closest report is Christchurch International Airport, 177.1 nm (327.9 km) NE. Retrieved 2019/10/15 17:30 UTC (11 minutes ago):

NZCH 151730Z AUTO 22002KT 5000 -RA BR BKN007/// 09/09 Q1008 TEMPO 9999 -RA

Closest aviation forecast (TAF) to Dunedin Airport

Forecast is more than 6 hours old.

Closest forecast is Queenstown International Airport, 82.1 nm (152.0 km) NW. Retrieved 2019/10/15 11:14 UTC (6 hours ago):

TAF NZQN 151018Z 1511/1605 11005KT 9999 SCT050 BECMG 1603/1605 17012KT